Time;durP1;ratioP1;P1;durP2;ratioP2;P2;SDS_P1;SDS_P2;PMS_P1;PMS_P2;Temp;Humidity;BMP_temperature;BMP_pressure;BME280_temperature;BME280_humidity;BME280_pressure;Samples;Min_cycle;Max_cycle;Signal;HPM_P1;HPM_P2
2021/12/16 00:08:36;;;;;;;2.65;2.45;;;17.70;63.80;;;;;;5035148;28;20056;-26
2021/12/16 00:30:11;;;;;;;2.28;2.17;;;17.60;64.00;;;;;;5034945;28;20409;-27
2021/12/16 00:32:47;;;;;;;2.50;2.40;;;17.60;64.00;;;;;;5037425;28;20048;-27
2021/12/16 00:35:14;;;;;;;2.45;2.22;;;17.60;64.00;;;;;;5054704;28;20044;-28
2021/12/16 00:37:40;;;;;;;2.85;2.20;;;17.60;64.00;;;;;;5055381;28;20069;-24
2021/12/16 00:40:07;;;;;;;2.25;2.05;;;17.50;64.00;;;;;;5054678;28;20037;-25
2021/12/16 00:42:46;;;;;;;2.40;2.30;;;17.50;64.00;;;;;;5055110;28;20048;-29
2021/12/16 00:54:08;;;;;;;2.15;2.05;;;17.50;64.00;;;;;;5054537;28;20041;-25
2021/12/16 00:55:55;;;;;;;2.28;2.17;;;17.50;64.00;;;;;;5035298;28;20048;-24
2021/12/16 00:58:26;;;;;;;2.15;2.05;;;17.50;64.00;;;;;;5034384;28;20053;-27
2021/12/16 01:01:00;;;;;;;2.25;2.15;;;17.40;63.90;;;;;;5035126;28;20467;-28
2021/12/16 01:03:34;;;;;;;2.10;2.00;;;17.50;63.90;;;;;;5034730;28;20552;-29
2021/12/16 01:08:50;;;;;;;2.40;2.30;;;17.50;63.80;;;;;;5034555;28;20052;-26
2021/12/16 01:51:25;;;;;;;1.63;1.52;;;17.40;63.70;;;;;;5050905;28;20047;-22
2021/12/16 01:57:09;;;;;;;1.80;1.70;;;17.40;63.70;;;;;;5037710;28;20048;-28
2021/12/16 01:59:36;;;;;;;1.60;1.50;;;17.40;63.70;;;;;;5031554;28;20466;-27
2021/12/16 02:02:26;;;;;;;1.48;1.38;;;17.40;63.70;;;;;;5038308;28;20517;-29
2021/12/16 02:05:12;;;;;;;1.90;1.80;;;17.40;63.60;;;;;;5037428;28;20045;-25
2021/12/16 02:10:41;;;;;;;1.30;1.30;;;17.40;63.70;;;;;;5025360;28;20073;-26
2021/12/16 02:29:49;;;;;;;1.38;1.30;;;17.30;63.60;;;;;;5037302;28;20077;-29
2021/12/16 02:32:37;;;;;;;2.17;1.42;;;17.30;63.60;;;;;;5037163;28;20049;-25
2021/12/16 02:37:32;;;;;;;1.40;1.30;;;17.30;63.70;;;;;;5017159;28;20121;-24
2021/12/16 02:39:58;;;;;;;1.20;1.20;;;17.30;63.70;;;;;;5017758;28;20042;-28
2021/12/16 02:42:34;;;;;;;1.20;1.20;;;17.30;63.70;;;;;;5016886;28;20080;-27
2021/12/16 02:50:16;;;;;;;1.55;1.45;;;17.30;63.60;;;;;;5016833;28;20470;-29
2021/12/16 02:52:42;;;;;;;1.70;1.60;;;17.30;63.80;;;;;;5035470;28;20041;-28
2021/12/16 02:55:09;;;;;;;1.20;1.20;;;17.30;63.70;;;;;;5036506;28;20437;-31
2021/12/16 02:57:43;;;;;;;1.00;1.00;;;17.30;63.60;;;;;;5036879;28;20172;-22
2021/12/16 03:00:12;;;;;;;1.20;1.20;;;17.30;63.60;;;;;;5036491;28;20126;-29
2021/12/16 03:02:38;;;;;;;1.23;1.23;;;17.30;63.70;;;;;;5019827;28;20046;-22
2021/12/16 03:05:04;;;;;;;1.23;1.23;;;17.30;63.60;;;;;;5036776;28;20052;-31
2021/12/16 03:07:30;;;;;;;1.10;1.10;;;17.30;63.70;;;;;;5036199;28;20049;-28
2021/12/16 03:18:30;;;;;;;0.93;0.93;;;17.30;63.60;;;;;;5012427;28;20563;-31
2021/12/16 03:20:52;;;;;;;1.02;1.02;;;17.30;63.60;;;;;;5022422;28;20469;-23
2021/12/16 03:38:57;;;;;;;1.10;1.10;;;17.20;63.60;;;;;;5055867;28;20119;-27
2021/12/16 03:41:23;;;;;;;0.98;0.98;;;17.30;63.50;;;;;;5055500;28;20064;-24
2021/12/16 03:43:50;;;;;;;1.02;1.00;;;17.20;63.70;;;;;;5056393;28;20045;-30
2021/12/16 03:46:27;;;;;;;0.80;0.80;;;17.20;63.60;;;;;;5055645;28;20099;-30
2021/12/16 03:49:06;;;;;;;1.08;1.08;;;17.20;63.60;;;;;;5054767;28;20136;-30
2021/12/16 03:51:41;;;;;;;1.00;1.00;;;17.20;63.60;;;;;;5046740;28;20076;-26
2021/12/16 03:54:11;;;;;;;0.80;0.80;;;17.20;63.60;;;;;;5036286;28;20121;-28
2021/12/16 03:56:37;;;;;;;0.85;0.85;;;17.20;63.60;;;;;;5035216;28;20049;-29
2021/12/16 03:59:03;;;;;;;0.90;0.90;;;17.10;63.70;;;;;;5036115;28;20485;-26
2021/12/16 04:01:29;;;;;;;0.93;0.93;;;17.10;63.80;;;;;;5035519;28;20053;-23
2021/12/16 04:03:55;;;;;;;0.88;0.88;;;17.20;63.70;;;;;;5036091;28;20095;-29
2021/12/16 04:06:21;;;;;;;0.93;0.93;;;17.20;63.50;;;;;;5035136;28;20046;-25
2021/12/16 04:08:47;;;;;;;1.00;1.00;;;17.20;63.40;;;;;;5035813;28;20087;-24
2021/12/16 04:11:21;;;;;;;0.73;0.73;;;17.20;63.50;;;;;;5035009;28;20046;-23
2021/12/16 04:13:57;;;;;;;;;;;17.20;63.60;;;;;;5036159;28;20107;-26
2021/12/16 04:16:39;;;;;;;1.00;1.00;;;17.10;63.70;;;;;;5035235;28;19913;-24
2021/12/16 04:19:09;;;;;;;0.90;0.90;;;17.20;63.70;;;;;;5035705;28;20045;-27
2021/12/16 04:21:37;;;;;;;0.80;0.80;;;17.20;63.60;;;;;;5034943;28;20099;-23
2021/12/16 04:24:02;;;;;;;0.77;0.77;;;17.20;63.60;;;;;;5035651;28;20136;-28
2021/12/16 04:26:28;;;;;;;0.80;0.80;;;17.20;63.50;;;;;;5034825;28;20072;-29
2021/12/16 04:28:54;;;;;;;1.02;0.80;;;17.10;63.50;;;;;;5035560;28;20459;-27
2021/12/16 04:31:19;;;;;;;0.95;0.95;;;17.20;63.50;;;;;;5034872;28;20524;-25
2021/12/16 04:33:45;;;;;;;0.60;0.60;;;17.10;63.50;;;;;;5046869;28;20055;-24
2021/12/16 04:36:11;;;;;;;0.95;0.95;;;17.20;63.60;;;;;;5055347;28;20041;-24
2021/12/16 04:38:37;;;;;;;0.68;0.68;;;17.20;63.50;;;;;;5054787;28;20049;-23
2021/12/16 04:41:04;;;;;;;0.68;0.68;;;17.20;63.50;;;;;;5055265;28;20041;-26
2021/12/16 04:43:39;;;;;;;0.88;0.88;;;17.20;63.40;;;;;;5054822;28;20068;-24
2021/12/16 04:46:08;;;;;;;0.80;0.80;;;17.10;63.30;;;;;;5055403;28;20387;-23
2021/12/16 04:48:34;;;;;;;0.60;0.60;;;17.20;63.40;;;;;;5054176;28;20048;-24
2021/12/16 04:51:00;;;;;;;0.70;0.70;;;17.20;63.40;;;;;;5051855;28;20061;-25
2021/12/16 04:53:25;;;;;;;0.70;0.70;;;17.20;63.50;;;;;;5033494;28;20049;-30
2021/12/16 04:55:51;;;;;;;1.55;0.82;;;17.20;63.40;;;;;;5035206;28;20049;-27
2021/12/16 04:58:17;;;;;;;0.85;0.85;;;17.10;63.40;;;;;;5034774;28;20053;-30
2021/12/16 05:00:43;;;;;;;0.60;0.60;;;17.20;63.50;;;;;;5035251;28;20045;-24
2021/12/16 05:03:08;;;;;;;0.70;0.70;;;17.10;63.40;;;;;;5035181;28;20120;-23
2021/12/16 05:05:34;;;;;;;0.60;0.60;;;17.20;63.50;;;;;;5034388;28;20105;-30
2021/12/16 05:07:59;;;;;;;0.80;0.80;;;17.10;63.40;;;;;;5035082;28;20057;-26
2021/12/16 05:10:25;;;;;;;0.90;0.90;;;17.10;63.50;;;;;;5034603;28;20041;-24
2021/12/16 05:12:55;;;;;;;0.63;0.63;;;17.20;63.40;;;;;;5034925;28;20103;-27
2021/12/16 05:15:23;;;;;;;0.60;0.60;;;17.10;63.40;;;;;;5034453;28;20453;-26
2021/12/16 05:17:52;;;;;;;0.80;0.80;;;17.10;63.50;;;;;;5035215;28;20729;-27
2021/12/16 05:20:27;;;;;;;0.77;0.77;;;17.10;63.50;;;;;;5034300;28;20046;-23
2021/12/16 05:28:03;;;;;;;0.63;0.63;;;17.20;63.40;;;;;;5034774;28;20042;-30
2021/12/16 05:30:29;;;;;;;0.60;0.60;;;17.10;63.40;;;;;;5034372;28;20666;-27
2021/12/16 05:32:55;;;;;;;0.80;0.80;;;17.10;63.40;;;;;;5039400;28;20048;-26
2021/12/16 05:35:21;;;;;;;0.82;0.82;;;17.10;63.40;;;;;;5054132;28;20045;-27
2021/12/16 05:37:46;;;;;;;0.70;0.70;;;17.10;63.40;;;;;;5054813;28;20098;-25
2021/12/16 05:40:14;;;;;;;0.77;0.77;;;17.10;63.40;;;;;;5054870;28;20128;-26
2021/12/16 05:42:40;;;;;;;0.60;0.60;;;17.10;63.50;;;;;;5052631;28;20056;-26
2021/12/16 05:45:06;;;;;;;0.90;0.90;;;17.10;63.50;;;;;;5054673;28;20044;-28
2021/12/16 05:47:32;;;;;;;0.82;0.82;;;17.10;63.60;;;;;;5052746;28;20049;-28
2021/12/16 05:49:58;;;;;;;0.50;0.50;;;17.10;63.60;;;;;;5054454;28;20051;-24
2021/12/16 05:52:23;;;;;;;0.70;0.70;;;17.10;63.40;;;;;;5039074;28;20037;-26
2021/12/16 05:54:49;;;;;;;0.50;0.50;;;17.10;63.60;;;;;;5034835;28;20469;-22
2021/12/16 05:57:14;;;;;;;0.57;0.57;;;17.10;63.60;;;;;;5034634;28;20045;-25
2021/12/16 05:59:40;;;;;;;0.82;0.82;;;17.00;63.60;;;;;;5034163;28;20430;-29
2021/12/16 06:02:06;;;;;;;0.70;0.70;;;17.10;63.50;;;;;;5031478;28;20136;-29
2021/12/16 06:04:33;;;;;;;0.52;0.52;;;17.00;63.50;;;;;;5025689;28;20042;-28
2021/12/16 06:06:59;;;;;;;0.50;0.50;;;17.00;63.60;;;;;;5042464;28;20051;-27
2021/12/16 06:09:24;;;;;;;0.60;0.60;;;17.00;63.60;;;;;;5038322;28;20112;-27
2021/12/16 06:11:52;;;;;;;0.70;0.70;;;17.10;63.40;;;;;;5041866;28;20045;-22
2021/12/16 06:14:24;;;;;;;0.63;0.63;;;17.10;63.60;;;;;;5027403;28;20037;-26
2021/12/16 06:27:53;;;;;;;3.78;2.97;;;17.10;63.90;;;;;;5029457;28;20052;-23
2021/12/16 06:30:23;;;;;;;4.88;3.15;;;17.10;64.10;;;;;;5050788;28;20041;-27
2021/12/16 06:32:49;;;;;;;6.03;4.40;;;17.10;64.60;;;;;;5042039;28;20044;-27
2021/12/16 06:35:14;;;;;;;5.88;4.40;;;17.10;64.60;;;;;;5053304;28;20036;-28
2021/12/16 06:37:40;;;;;;;6.22;4.40;;;17.10;64.30;;;;;;5034334;28;20088;-24
2021/12/16 06:40:06;;;;;;;6.20;4.45;;;17.10;64.50;;;;;;5052897;28;20127;-24
2021/12/16 06:42:35;;;;;;;6.50;4.80;;;17.10;64.40;;;;;;5051009;28;20037;-26
2021/12/16 06:45:07;;;;;;;6.70;5.10;;;17.10;64.60;;;;;;5053080;28;20044;-25
2021/12/16 06:47:45;;;;;;;7.47;5.68;;;17.10;64.50;;;;;;5051850;28;20076;-26
2021/12/16 06:50:14;;;;;;;7.47;5.40;;;17.10;65.30;;;;;;5032605;28;20046;-22
2021/12/16 06:52:46;;;;;;;7.47;5.25;;;17.10;64.30;;;;;;5039955;28;20037;-24
2021/12/16 06:55:21;;;;;;;14.50;6.18;;;17.10;64.60;;;;;;5034455;28;20047;-30
2021/12/16 06:57:53;;;;;;;10.80;5.32;;;17.20;64.70;;;;;;5035533;28;20041;-30
2021/12/16 07:00:30;;;;;;;8.90;5.03;;;17.10;64.70;;;;;;5036215;28;20152;-23
2021/12/16 07:02:58;;;;;;;9.43;5.45;;;17.10;64.60;;;;;;5031903;28;20038;-24
2021/12/16 07:05:30;;;;;;;7.38;5.47;;;17.20;64.50;;;;;;5049128;28;20045;-27
2021/12/16 07:07:57;;;;;;;8.55;5.68;;;17.20;64.40;;;;;;5036848;28;20109;-22
2021/12/16 07:10:22;;;;;;;5.97;4.90;;;17.20;64.40;;;;;;5036560;28;20073;-24
2021/12/16 07:12:49;;;;;;;7.88;5.45;;;17.20;64.40;;;;;;5036756;28;20048;-25
2021/12/16 07:15:21;;;;;;;9.52;5.10;;;17.10;64.20;;;;;;5036911;28;20049;-25
2021/12/16 07:17:47;;;;;;;6.75;4.75;;;17.20;64.40;;;;;;5036440;28;20045;-25
2021/12/16 07:20:15;;;;;;;7.05;5.03;;;17.20;64.30;;;;;;5029633;28;20052;-26
2021/12/16 07:22:41;;;;;;;8.27;5.13;;;17.10;64.30;;;;;;5035883;28;20099;-29
2021/12/16 07:25:07;;;;;;;8.75;4.95;;;17.20;64.30;;;;;;5022425;28;20045;-28
2021/12/16 07:27:34;;;;;;;5.63;4.88;;;17.20;64.20;;;;;;5031907;28;20038;-22
2021/12/16 07:30:01;;;;;;;7.28;4.70;;;17.10;64.30;;;;;;5032037;28;20490;-23
2021/12/16 07:32:26;;;;;;;6.40;5.00;;;17.10;64.60;;;;;;5026257;28;20065;-26
2021/12/16 07:34:52;;;;;;;5.03;4.28;;;17.00;64.50;;;;;;5044537;28;20456;-27
2021/12/16 07:37:17;;;;;;;8.30;5.30;;;17.10;64.60;;;;;;5045587;28;20068;-25
2021/12/16 07:39:45;;;;;;;6.50;4.35;;;17.00;64.40;;;;;;5029296;28;20053;-22
2021/12/16 07:42:13;;;;;;;6.18;4.85;;;17.00;64.80;;;;;;5028057;28;20073;-23
2021/12/16 07:44:39;;;;;;;7.95;4.57;;;17.00;64.70;;;;;;5031611;28;20107;-29
2021/12/16 07:47:07;;;;;;;5.03;4.07;;;17.00;64.80;;;;;;5026624;28;20046;-25
2021/12/16 07:49:35;;;;;;;6.40;4.50;;;17.00;64.70;;;;;;5028166;28;20544;-27
2021/12/16 07:52:02;;;;;;;5.60;4.50;;;17.00;64.70;;;;;;5042449;28;20033;-28
2021/12/16 07:54:28;;;;;;;5.70;3.75;;;17.00;64.50;;;;;;5054217;28;20108;-24
2021/12/16 07:56:55;;;;;;;4.40;3.90;;;17.00;64.50;;;;;;5036877;28;20509;-23
2021/12/16 07:59:21;;;;;;;5.65;4.05;;;17.00;64.60;;;;;;5035734;28;20410;-24
2021/12/16 08:01:46;;;;;;;6.65;3.90;;;17.10;64.60;;;;;;5014225;28;20409;-27
2021/12/16 08:04:27;;;;;;;5.57;4.18;;;17.00;64.70;;;;;;5032692;28;20123;-24
2021/12/16 08:06:53;;;;;;;4.75;3.60;;;17.00;64.80;;;;;;5062845;28;20124;-28
2021/12/16 08:09:19;;;;;;;5.03;3.45;;;16.90;64.70;;;;;;5055345;28;20045;-27
2021/12/16 08:11:45;;;;;;;3.90;3.55;;;16.90;64.80;;;;;;5055303;28;20060;-26
2021/12/16 08:14:11;;;;;;;7.32;3.63;;;16.90;64.70;;;;;;5075688;28;20048;-28
2021/12/16 08:16:37;;;;;;;3.83;3.30;;;16.90;64.70;;;;;;5075009;28;20051;-23
2021/12/16 08:19:03;;;;;;;5.97;3.72;;;16.90;64.70;;;;;;5075523;28;20493;-28
2021/12/16 08:21:29;;;;;;;4.85;3.47;;;16.90;64.70;;;;;;5057236;28;20044;-27
2021/12/16 08:23:59;;;;;;;5.13;3.75;;;16.90;64.60;;;;;;5074996;28;20044;-21
2021/12/16 08:26:25;;;;;;;5.50;4.22;;;16.90;64.70;;;;;;5075478;28;20052;-23
2021/12/16 08:28:50;;;;;;;4.38;3.47;;;16.80;64.80;;;;;;5057160;28;20531;-26
2021/12/16 08:31:16;;;;;;;4.15;3.75;;;16.80;64.70;;;;;;5042126;28;20107;-22
2021/12/16 08:33:42;;;;;;;4.57;3.55;;;16.90;64.80;;;;;;5045472;28;20052;-24
2021/12/16 08:36:08;;;;;;;5.15;3.50;;;16.90;64.80;;;;;;5055332;28;20033;-27
2021/12/16 08:38:33;;;;;;;3.65;3.35;;;16.90;64.80;;;;;;5055018;28;20048;-30
2021/12/16 08:41:01;;;;;;;4.38;3.90;;;16.80;64.90;;;;;;5055377;28;20421;-25
2021/12/16 08:43:27;;;;;;;3.70;3.13;;;16.80;64.90;;;;;;5055147;28;20108;-20
2021/12/16 08:45:53;;;;;;;6.75;3.50;;;16.80;64.90;;;;;;5055428;28;20516;-26
2021/12/16 08:48:19;;;;;;;5.38;3.97;;;16.80;64.90;;;;;;5055128;28;20053;-23
2021/12/16 08:50:46;;;;;;;4.90;3.30;;;16.80;64.90;;;;;;5054674;28;20052;-27
2021/12/16 08:53:12;;;;;;;3.38;3.00;;;16.80;64.80;;;;;;5055427;28;20102;-27
2021/12/16 08:55:39;;;;;;;3.15;2.83;;;16.80;64.90;;;;;;5054557;28;20040;-22
2021/12/16 08:58:05;;;;;;;3.45;2.90;;;16.70;64.80;;;;;;5055370;28;20049;-24
2021/12/16 09:00:37;;;;;;;3.80;3.20;;;16.70;65.00;;;;;;5054703;28;20588;-27
2021/12/16 09:03:03;;;;;;;3.00;2.80;;;16.70;65.00;;;;;;5055330;28;20045;-25
2021/12/16 09:05:28;;;;;;;4.18;3.42;;;16.70;65.00;;;;;;5035610;28;20094;-28
2021/12/16 09:07:54;;;;;;;3.03;2.70;;;16.70;65.00;;;;;;5042936;28;20045;-25
2021/12/16 09:10:25;;;;;;;3.25;2.95;;;16.70;65.00;;;;;;5035332;28;20053;-21
2021/12/16 09:13:02;;;;;;;2.70;2.50;;;16.70;65.00;;;;;;5034459;28;20080;-26
2021/12/16 09:15:28;;;;;;;3.40;3.08;;;16.80;64.80;;;;;;5035314;28;20486;-29
2021/12/16 09:17:54;;;;;;;4.20;2.70;;;16.80;64.80;;;;;;5034543;28;20532;-26
2021/12/16 09:20:20;;;;;;;3.28;2.97;;;16.80;64.80;;;;;;5035126;28;20095;-28
2021/12/16 09:22:46;;;;;;;4.28;3.15;;;16.80;64.70;;;;;;5034623;28;20060;-29
2021/12/16 09:25:12;;;;;;;2.85;2.63;;;16.70;64.70;;;;;;5035211;28;20387;-24
2021/12/16 09:27:38;;;;;;;3.30;2.72;;;16.80;64.60;;;;;;5034261;28;20490;-22
2021/12/16 09:30:06;;;;;;;3.50;2.38;;;16.80;64.40;;;;;;5039652;28;20041;-27
2021/12/16 09:32:32;;;;;;;2.60;2.40;;;16.80;64.50;;;;;;5038863;28;20108;-26
2021/12/16 09:34:58;;;;;;;2.55;2.35;;;16.80;64.50;;;;;;5074820;28;20056;-27
2021/12/16 09:37:23;;;;;;;4.20;2.30;;;16.80;64.30;;;;;;5078767;28;20044;-27
2021/12/16 09:39:49;;;;;;;2.50;2.30;;;16.80;64.50;;;;;;5077990;28;20047;-26
2021/12/16 09:42:15;;;;;;;2.50;2.30;;;16.80;64.40;;;;;;5078402;28;20056;-25
2021/12/16 09:44:41;;;;;;;2.40;2.20;;;16.90;64.40;;;;;;5077852;28;20036;-26
2021/12/16 09:47:09;;;;;;;2.70;2.50;;;16.80;64.40;;;;;;5078439;28;20473;-25
2021/12/16 09:49:34;;;;;;;2.40;2.20;;;16.80;64.40;;;;;;5077589;28;20076;-21
2021/12/16 09:52:00;;;;;;;2.33;2.10;;;16.80;64.40;;;;;;5078423;28;20068;-22
2021/12/16 09:54:27;;;;;;;2.40;2.20;;;16.80;64.40;;;;;;5078415;28;20043;-21
2021/12/16 09:56:54;;;;;;;2.22;2.03;;;16.90;64.30;;;;;;5077553;28;20070;-26
2021/12/16 09:59:20;;;;;;;2.17;2.00;;;16.80;64.30;;;;;;5078389;28;20036;-23
2021/12/16 10:01:47;;;;;;;1.92;1.77;;;16.80;64.30;;;;;;5077569;28;20044;-30
2021/12/16 10:04:15;;;;;;;2.35;2.15;;;16.80;64.30;;;;;;5063157;28;20037;-24
2021/12/16 10:06:41;;;;;;;2.78;2.20;;;16.80;64.30;;;;;;5046011;28;20047;-28
2021/12/16 10:09:07;;;;;;;1.90;1.80;;;16.80;64.60;;;;;;5043043;28;20037;-26
2021/12/16 10:11:34;;;;;;;2.00;1.80;;;16.80;64.40;;;;;;5040742;28;20487;-25
2021/12/16 10:14:14;;;;;;;2.72;2.05;;;16.80;64.30;;;;;;5045851;28;20030;-26
2021/12/16 10:19:26;;;;;;;1.92;1.80;;;16.80;64.10;;;;;;5046337;28;20064;-23
2021/12/16 10:21:53;;;;;;;2.00;1.90;;;16.80;64.20;;;;;;5045541;28;20419;-28
2021/12/16 10:24:27;;;;;;;2.30;1.63;;;16.80;64.20;;;;;;5020337;28;20092;-24
2021/12/16 10:27:19;;;;;;;2.13;1.92;;;16.80;64.10;;;;;;5045280;28;20053;-25
2021/12/16 10:29:52;;;;;;;2.20;2.00;;;16.80;64.10;;;;;;5045399;28;20109;-31
2021/12/16 10:32:43;;;;;;;2.42;2.22;;;16.70;64.20;;;;;;5037756;28;20441;-31
2021/12/16 10:35:19;;;;;;;1.77;1.67;;;16.80;64.30;;;;;;5037258;28;20490;-29
2021/12/16 10:37:50;;;;;;;1.60;1.50;;;16.80;64.20;;;;;;5037102;28;20103;-31
2021/12/16 10:40:26;;;;;;;1.80;1.70;;;16.80;64.10;;;;;;5037722;28;20041;-28
2021/12/16 10:42:51;;;;;;;2.20;2.00;;;16.80;64.20;;;;;;5037055;28;20049;-30
2021/12/16 10:45:29;;;;;;;1.92;1.83;;;16.80;64.20;;;;;;5037685;28;20484;-27
2021/12/16 10:48:14;;;;;;;2.10;1.90;;;16.70;64.30;;;;;;5036391;28;20041;-31
2021/12/16 10:50:58;;;;;;;2.40;1.70;;;16.80;64.30;;;;;;5036851;28;20067;-24
2021/12/16 10:53:53;;;;;;;2.63;1.95;;;16.70;64.30;;;;;;5037360;28;20136;-24
2021/12/16 10:56:37;;;;;;;1.83;1.73;;;16.70;64.20;;;;;;5036770;28;20041;-25
2021/12/16 10:59:06;;;;;;;1.60;1.50;;;16.80;64.20;;;;;;5035747;28;20048;-29
2021/12/16 11:01:37;;;;;;;2.20;1.55;;;16.70;64.10;;;;;;5037297;28;20549;-25
2021/12/16 11:04:09;;;;;;;1.50;1.40;;;16.80;64.20;;;;;;5044210;28;20052;-24
2021/12/16 11:06:47;;;;;;;1.60;1.50;;;16.80;64.10;;;;;;5057136;28;20065;-28
2021/12/16 11:09:36;;;;;;;2.05;1.85;;;16.70;64.20;;;;;;5056545;28;20065;-27
2021/12/16 11:12:34;;;;;;;1.42;1.33;;;16.80;64.20;;;;;;5055239;28;20119;-27
2021/12/16 11:15:11;;;;;;;1.77;1.45;;;16.70;64.20;;;;;;5042095;28;20044;-27
2021/12/16 11:17:57;;;;;;;1.65;1.50;;;16.80;64.10;;;;;;5056362;28;20044;-24
2021/12/16 11:20:53;;;;;;;1.60;1.50;;;16.80;64.80;;;;;;5049255;28;20048;-25
2021/12/16 11:23:26;;;;;;;1.52;1.40;;;16.80;64.00;;;;;;5056014;28;20032;-26
2021/12/16 11:26:00;;;;;;;1.52;1.42;;;16.80;64.10;;;;;;5056051;28;20047;-25
2021/12/16 11:28:37;;;;;;;1.73;1.33;;;16.70;64.30;;;;;;5056742;28;20104;-25
2021/12/16 11:31:14;;;;;;;1.73;1.63;;;16.70;64.20;;;;;;5039950;28;20156;-29
2021/12/16 11:33:43;;;;;;;1.40;1.30;;;16.70;64.30;;;;;;5046587;28;20132;-28
2021/12/16 11:36:15;;;;;;;1.40;1.30;;;16.80;64.10;;;;;;5056573;28;20055;-23
2021/12/16 11:39:01;;;;;;;1.65;1.40;;;16.90;64.10;;;;;;5055933;28;20622;-27
2021/12/16 11:41:40;;;;;;;1.20;1.20;;;16.90;63.90;;;;;;5056314;28;20048;-23
2021/12/16 11:44:21;;;;;;;1.90;1.20;;;16.90;64.00;;;;;;5056050;28;20174;-26
2021/12/16 11:46:50;;;;;;;1.40;1.30;;;16.90;63.90;;;;;;5055815;28;20041;-25
2021/12/16 11:49:21;;;;;;;1.60;1.50;;;16.90;63.90;;;;;;5056122;28;20057;-28
2021/12/16 11:51:50;;;;;;;1.48;1.38;;;16.90;64.10;;;;;;5055718;28;20033;-25
2021/12/16 11:54:23;;;;;;;1.30;1.20;;;16.90;64.10;;;;;;5056186;28;20076;-31
2021/12/16 11:56:57;;;;;;;1.55;1.45;;;16.90;63.90;;;;;;5055568;28;20047;-25
2021/12/16 11:59:48;;;;;;;1.20;1.03;;;16.90;63.90;;;;;;5055498;28;20045;-24
2021/12/16 12:02:52;;;;;;;1.30;1.20;;;17.00;63.70;;;;;;5055580;28;20044;-26
2021/12/16 12:05:23;;;;;;;1.40;1.30;;;17.00;63.70;;;;;;5037300;28;20046;-26
2021/12/16 12:08:21;;;;;;;1.27;1.17;;;16.90;63.70;;;;;;5035475;28;20399;-24
2021/12/16 12:11:02;;;;;;;1.52;1.40;;;16.90;63.80;;;;;;5034827;28;20037;-30
2021/12/16 12:13:27;;;;;;;1.00;1.00;;;16.90;63.80;;;;;;5035911;28;20065;-29
2021/12/16 12:16:07;;;;;;;1.55;1.10;;;16.90;63.70;;;;;;5035306;28;20042;-30
2021/12/16 12:18:41;;;;;;;1.10;1.10;;;16.90;63.70;;;;;;5035900;28;20045;-25
2021/12/16 12:21:37;;;;;;;1.05;1.05;;;16.90;63.70;;;;;;5034028;28;20041;-28
2021/12/16 12:24:20;;;;;;;1.65;1.25;;;16.90;63.70;;;;;;5035217;28;20048;-27
2021/12/16 12:26:53;;;;;;;1.20;1.10;;;16.90;63.80;;;;;;5034941;28;20040;-26
2021/12/16 12:29:28;;;;;;;1.15;1.10;;;16.90;63.90;;;;;;5035529;28;20084;-27
2021/12/16 12:32:29;;;;;;;1.50;1.40;;;16.90;64.00;;;;;;5053418;28;20048;-33
2021/12/16 12:35:09;;;;;;;0.90;0.90;;;16.80;63.90;;;;;;5019174;28;20426;-22
2021/12/16 12:37:37;;;;;;;1.15;1.15;;;16.90;64.00;;;;;;5015804;28;20038;-24
2021/12/16 12:40:15;;;;;;;1.35;1.25;;;16.80;64.00;;;;;;5015173;28;20048;-25
2021/12/16 12:42:41;;;;;;;1.10;1.10;;;16.90;64.10;;;;;;5014829;28;20045;-23
2021/12/16 12:45:08;;;;;;;1.05;1.05;;;16.80;63.90;;;;;;5015687;28;20132;-24
2021/12/16 12:47:35;;;;;;;1.27;1.17;;;16.90;64.10;;;;;;5015574;28;20053;-31
2021/12/16 12:50:20;;;;;;;0.77;0.77;;;16.80;64.00;;;;;;5014692;28;20077;-25
2021/12/16 12:52:49;;;;;;;0.98;0.98;;;16.80;64.20;;;;;;5014978;28;20038;-26
2021/12/16 12:55:23;;;;;;;1.25;1.00;;;16.80;64.30;;;;;;5015646;28;20084;-26
2021/12/16 12:57:49;;;;;;;1.20;1.10;;;16.80;64.20;;;;;;5014822;28;20037;-29
2021/12/16 13:00:30;;;;;;;1.30;1.20;;;16.80;64.20;;;;;;5015487;28;20052;-28
2021/12/16 13:03:03;;;;;;;1.25;1.15;;;16.80;64.30;;;;;;5014889;28;20042;-25
2021/12/16 13:05:29;;;;;;;1.10;1.00;;;16.80;64.30;;;;;;5041268;28;20041;-25
2021/12/16 13:08:17;;;;;;;1.10;1.00;;;16.80;64.20;;;;;;5034644;28;20576;-26
2021/12/16 13:10:47;;;;;;;1.40;1.30;;;16.80;64.20;;;;;;5037333;28;20037;-22
2021/12/16 13:15:51;;;;;;;1.27;1.17;;;16.80;64.10;;;;;;5038700;28;20040;-24
2021/12/16 13:26:41;;;;;;;1.40;1.30;;;16.80;64.00;;;;;;5045966;28;20064;-22
2021/12/16 13:29:27;;;;;;;1.10;1.00;;;16.80;64.10;;;;;;5049912;28;20045;-25
2021/12/16 13:32:09;;;;;;;0.90;0.90;;;16.70;64.10;;;;;;5058125;28;20135;-28
2021/12/16 13:34:47;;;;;;;0.90;0.90;;;16.80;64.10;;;;;;5061323;28;20112;-25
2021/12/16 13:37:23;;;;;;;1.20;1.10;;;16.70;64.30;;;;;;5058202;28;20049;-28
2021/12/16 13:39:55;;;;;;;0.82;0.82;;;16.70;64.20;;;;;;5057935;28;20075;-24
2021/12/16 13:42:21;;;;;;;1.23;0.80;;;16.70;64.20;;;;;;5058480;28;20053;-28
2021/12/16 13:44:50;;;;;;;0.90;0.90;;;16.70;64.30;;;;;;5058003;28;20048;-25
2021/12/16 14:01:54;;;;;;;1.00;1.00;;;16.70;64.00;;;;;;5058474;28;20041;-23
2021/12/16 14:10:00;;;;;;;0.80;0.80;;;16.80;64.00;;;;;;5038208;28;20132;-24
2021/12/16 14:15:20;;;;;;;0.80;0.80;;;16.80;63.80;;;;;;5041135;28;20052;-26
2021/12/16 14:18:04;;;;;;;0.90;0.90;;;16.80;64.50;;;;;;5025266;28;20053;-30
2021/12/16 14:23:46;;;;;;;1.88;0.80;;;16.80;63.60;;;;;;5002903;28;20494;-23
2021/12/16 14:42:43;;;;;;;0.93;0.93;;;16.80;63.70;;;;;;5037048;28;20060;-26
2021/12/16 14:50:17;;;;;;;;;;;16.80;63.80;;;;;;5037342;28;20103;-27
2021/12/16 14:52:43;;;;;;;0.75;0.75;;;16.80;63.80;;;;;;5045914;28;20006;-22
2021/12/16 14:55:10;;;;;;;0.73;0.73;;;16.70;63.90;;;;;;5036905;28;20037;-28
2021/12/16 14:57:38;;;;;;;0.90;0.90;;;16.80;63.90;;;;;;5037091;28;20051;-24
2021/12/16 15:00:10;;;;;;;0.82;0.82;;;16.80;63.80;;;;;;5036710;28;20041;-30
2021/12/16 15:02:38;;;;;;;0.70;0.70;;;16.70;63.80;;;;;;5037414;28;20124;-24
2021/12/16 15:05:13;;;;;;;1.02;0.93;;;16.70;63.70;;;;;;5052434;28;20094;-28
2021/12/16 15:07:40;;;;;;;0.90;0.90;;;16.70;63.80;;;;;;5040528;28;20043;-27
2021/12/16 15:10:12;;;;;;;0.80;0.80;;;16.70;63.80;;;;;;5056341;28;20504;-31
2021/12/16 15:12:47;;;;;;;0.63;0.63;;;16.70;63.90;;;;;;5057031;28;20033;-25
2021/12/16 15:45:25;;;;;;;0.60;0.60;;;16.70;63.60;;;;;;5075309;28;20526;-30
2021/12/16 15:47:56;;;;;;;0.80;0.80;;;16.70;63.60;;;;;;5075572;28;20412;-25
2021/12/16 15:50:34;;;;;;;0.70;0.70;;;16.70;63.60;;;;;;5075910;28;20128;-24
2021/12/16 15:53:01;;;;;;;0.80;0.80;;;16.70;63.70;;;;;;5075432;28;20047;-28
2021/12/16 15:55:37;;;;;;;0.70;0.70;;;16.70;63.70;;;;;;5076009;28;20033;-28
2021/12/16 15:58:08;;;;;;;0.75;0.70;;;16.70;63.80;;;;;;5075445;28;20037;-28
2021/12/16 16:00:36;;;;;;;0.60;0.60;;;16.70;63.70;;;;;;5076049;28;20040;-31
2021/12/16 16:03:02;;;;;;;0.60;0.60;;;16.70;63.70;;;;;;5075271;28;20044;-22
2021/12/16 16:05:32;;;;;;;0.80;0.80;;;16.70;63.60;;;;;;5043213;28;20190;-27
2021/12/16 16:08:00;;;;;;;0.65;0.65;;;16.70;63.60;;;;;;5043565;28;20072;-30
2021/12/16 16:10:26;;;;;;;0.90;0.90;;;16.70;63.60;;;;;;5042908;28;20038;-26
2021/12/16 16:12:51;;;;;;;0.70;0.70;;;16.70;63.70;;;;;;5039188;28;20116;-24
2021/12/16 16:15:18;;;;;;;0.60;0.60;;;16.70;63.80;;;;;;5055441;28;20037;-23
2021/12/16 16:20:34;;;;;;;1.05;0.77;;;16.70;63.80;;;;;;5034320;28;20533;-26
2021/12/16 16:23:07;;;;;;;0.73;0.73;;;16.70;63.70;;;;;;5035081;28;20046;-27
2021/12/16 16:25:32;;;;;;;0.63;0.63;;;16.70;63.70;;;;;;5035495;28;20045;-28
2021/12/16 16:27:59;;;;;;;0.63;0.63;;;16.70;63.70;;;;;;5035050;28;20513;-25
2021/12/16 16:30:25;;;;;;;0.60;0.60;;;16.60;63.80;;;;;;5035714;28;20474;-24
2021/12/16 16:33:05;;;;;;;0.70;0.70;;;16.70;63.60;;;;;;5042861;28;20041;-26
2021/12/16 16:35:32;;;;;;;0.63;0.63;;;16.70;63.60;;;;;;5034966;28;20042;-23
2021/12/16 16:38:12;;;;;;;0.85;0.85;;;16.70;63.60;;;;;;5035549;28;20406;-28
2021/12/16 16:40:40;;;;;;;0.70;0.70;;;16.70;63.50;;;;;;5055114;28;20123;-23
2021/12/16 16:43:17;;;;;;;0.90;0.90;;;16.70;63.60;;;;;;5051265;28;20045;-26
2021/12/16 16:45:43;;;;;;;0.80;0.80;;;16.70;63.70;;;;;;5051024;28;20044;-23
2021/12/16 16:48:27;;;;;;;0.80;0.80;;;16.70;63.80;;;;;;5023970;28;20056;-24
2021/12/16 16:51:06;;;;;;;0.80;0.80;;;16.70;63.80;;;;;;5035229;28;20045;-24
2021/12/16 16:53:32;;;;;;;0.82;0.80;;;16.60;63.70;;;;;;5015140;28;20105;-24
2021/12/16 16:55:58;;;;;;;1.17;0.95;;;16.60;63.70;;;;;;5013641;28;20517;-24
2021/12/16 16:58:23;;;;;;;0.65;0.65;;;16.70;63.70;;;;;;5015488;28;20049;-31
2021/12/16 17:00:52;;;;;;;0.70;0.70;;;16.60;63.70;;;;;;5026630;28;20176;-27
2021/12/16 17:03:19;;;;;;;0.70;0.70;;;16.60;63.70;;;;;;5035978;28;20414;-27
2021/12/16 17:05:57;;;;;;;0.70;0.70;;;16.70;63.60;;;;;;5055033;28;20045;-25
2021/12/16 17:08:27;;;;;;;0.98;0.98;;;16.70;63.70;;;;;;5054539;28;20436;-25